createdAt,value
2018-05-09T00:01:20.675Z,16.70
2018-05-09T00:03:48.319Z,16.70
2018-05-09T00:06:15.935Z,16.60
2018-05-09T00:08:43.572Z,16.50
2018-05-09T00:11:11.947Z,16.30
2018-05-09T00:13:40.933Z,16.10
2018-05-09T00:16:08.561Z,16.10
2018-05-09T00:18:36.193Z,16.00
2018-05-09T00:21:03.795Z,15.80
2018-05-09T00:23:31.403Z,15.70
2018-05-09T00:25:59.042Z,15.60
2018-05-09T00:28:26.623Z,15.50
2018-05-09T00:30:54.977Z,15.30
2018-05-09T00:33:22.587Z,15.30
2018-05-09T00:35:50.231Z,15.20
2018-05-09T00:38:18.233Z,15.20
2018-05-09T00:40:45.819Z,15.10
2018-05-09T00:43:13.421Z,15.10
2018-05-09T00:45:41.015Z,15.00
2018-05-09T00:48:08.637Z,14.90
2018-05-09T00:50:37.022Z,14.80
2018-05-09T00:53:04.627Z,14.80
2018-05-09T00:55:32.222Z,14.80
2018-05-09T00:58:00.587Z,14.70
2018-05-09T01:00:28.201Z,14.60
2018-05-09T01:02:55.810Z,14.60
2018-05-09T01:05:24.934Z,14.50
2018-05-09T01:07:52.524Z,14.50
2018-05-09T01:10:20.102Z,14.50
2018-05-09T01:12:47.758Z,14.50
2018-05-09T01:15:15.376Z,14.40
2018-05-09T01:17:43.746Z,14.30
2018-05-09T01:20:12.066Z,14.30
2018-05-09T01:22:39.726Z,14.30
2018-05-09T01:25:07.357Z,14.30
2018-05-09T01:27:34.957Z,14.20
2018-05-09T01:30:02.520Z,14.20
2018-05-09T01:32:30.096Z,14.20
2018-05-09T01:34:57.728Z,14.10
2018-05-09T01:37:25.361Z,14.10
2018-05-09T01:39:53.780Z,14.00
2018-05-09T01:42:21.459Z,14.00
2018-05-09T01:44:49.016Z,13.90
2018-05-09T01:47:16.626Z,13.80
2018-05-09T01:49:44.205Z,13.80
2018-05-09T01:52:11.821Z,13.80
2018-05-09T01:54:40.217Z,13.70
2018-05-09T01:57:08.595Z,13.70
2018-05-09T01:59:36.952Z,13.70
2018-05-09T02:02:05.641Z,13.60
2018-05-09T02:04:33.273Z,13.60
2018-05-09T02:07:00.874Z,13.60
2018-05-09T02:09:28.499Z,13.50
2018-05-09T02:11:56.108Z,13.50
2018-05-09T02:14:24.484Z,13.50
2018-05-09T02:16:52.780Z,13.40
2018-05-09T02:19:20.400Z,13.40
2018-05-09T02:21:48.026Z,13.50
2018-05-09T02:24:15.631Z,13.40
2018-05-09T02:26:43.989Z,13.60
2018-05-09T02:29:11.583Z,13.50
2018-05-09T02:31:39.963Z,13.70
2018-05-09T02:34:08.329Z,13.80
2018-05-09T02:36:36.725Z,13.90
2018-05-09T02:39:04.347Z,13.90
2018-05-09T02:41:31.980Z,13.90
2018-05-09T02:43:59.590Z,14.00
2018-05-09T02:46:27.188Z,14.00
2018-05-09T02:48:54.835Z,14.00
2018-05-09T02:51:22.492Z,14.00
2018-05-09T02:53:50.070Z,14.00
2018-05-09T02:56:17.703Z,14.00
2018-05-09T02:58:45.330Z,14.00
2018-05-09T03:01:12.994Z,14.00
2018-05-09T03:03:40.606Z,14.10
2018-05-09T03:06:08.210Z,14.20
2018-05-09T03:08:35.776Z,14.20
2018-05-09T03:11:03.401Z,14.30
2018-05-09T03:13:30.965Z,14.40
2018-05-09T03:15:58.571Z,14.40
2018-05-09T03:18:26.947Z,14.30
2018-05-09T03:20:54.585Z,14.30
2018-05-09T03:23:22.175Z,14.30
2018-05-09T03:25:49.775Z,14.30
2018-05-09T03:28:17.354Z,14.30
2018-05-09T03:30:44.942Z,14.30
2018-05-09T03:33:12.536Z,14.20
2018-05-09T03:35:40.913Z,14.20
2018-05-09T03:38:08.551Z,14.20
2018-05-09T03:43:44.789Z,14.20
2018-05-09T03:46:12.431Z,14.20
2018-05-09T03:48:40.961Z,14.20
2018-05-09T03:51:08.545Z,14.20
2018-05-09T03:53:36.921Z,14.10
2018-05-09T03:56:06.314Z,14.10
2018-05-09T03:58:33.915Z,14.10
2018-05-09T04:01:01.493Z,14.10
2018-05-09T04:03:40.840Z,13.90
2018-05-09T04:06:24.620Z,13.90
2018-05-09T04:09:04.877Z,13.90
2018-05-09T04:11:32.467Z,13.90
2018-05-09T04:14:00.054Z,13.90
2018-05-09T04:16:27.666Z,13.90
2018-05-09T04:18:55.272Z,14.00
2018-05-09T04:21:22.842Z,14.00
2018-05-09T04:23:50.400Z,13.90
2018-05-09T04:26:28.432Z,13.90
2018-05-09T04:28:56.202Z,13.90
2018-05-09T04:31:23.808Z,13.90
2018-05-09T04:33:53.364Z,13.90
2018-05-09T04:36:21.736Z,14.00
2018-05-09T04:38:52.249Z,14.10
2018-05-09T04:41:21.510Z,14.20
2018-05-09T04:43:49.270Z,14.30
2018-05-09T04:46:33.722Z,14.40
2018-05-09T04:49:02.099Z,14.60
2018-05-09T04:51:30.477Z,14.70
2018-05-09T04:53:58.868Z,14.90
2018-05-09T04:56:26.480Z,14.90
2018-05-09T04:58:54.059Z,15.10
2018-05-09T05:01:21.777Z,15.30
2018-05-09T05:03:49.425Z,15.60
2018-05-09T05:06:17.034Z,16.10
2018-05-09T05:08:44.615Z,16.90
2018-05-09T05:11:13.017Z,18.70
2018-05-09T05:13:40.630Z,18.70
2018-05-09T05:16:08.293Z,19.50
2018-05-09T05:18:36.662Z,20.30
2018-05-09T05:21:04.247Z,20.30
2018-05-09T05:23:31.863Z,20.60
2018-05-09T05:25:59.605Z,21.20
2018-05-09T05:28:31.593Z,22.00
2018-05-09T05:31:04.525Z,22.60
2018-05-09T05:33:39.460Z,23.20
2018-05-09T05:36:14.379Z,23.70
2018-05-09T05:39:07.769Z,24.30
2018-05-09T05:44:36.247Z,24.40
2018-05-09T05:55:20.480Z,25.10
2018-05-09T06:01:14.152Z,26.60
2018-05-09T06:17:49.694Z,30.00
2018-05-09T06:20:28.821Z,29.80
2018-05-09T06:23:02.592Z,29.80
2018-05-09T06:25:33.795Z,29.70
2018-05-09T06:28:07.873Z,28.40
2018-05-09T06:30:40.021Z,28.40
2018-05-09T06:33:07.775Z,28.10
2018-05-09T06:35:35.281Z,26.80
2018-05-09T06:38:03.586Z,25.50
2018-05-09T06:40:31.138Z,25.40
2018-05-09T06:42:58.776Z,24.60
2018-05-09T06:45:26.470Z,24.50
2018-05-09T06:47:56.213Z,23.20
2018-05-09T06:50:27.230Z,23.00
2018-05-09T06:52:56.418Z,22.70
2018-05-09T06:55:23.943Z,22.60
2018-05-09T06:57:52.260Z,22.60
2018-05-09T07:00:19.781Z,22.50
2018-05-09T07:02:47.342Z,22.70
2018-05-09T07:05:15.730Z,22.30
2018-05-09T07:07:43.334Z,22.30
2018-05-09T07:10:11.041Z,22.50
2018-05-09T07:12:38.777Z,22.60
2018-05-09T07:15:06.415Z,22.70
2018-05-09T07:17:34.380Z,22.90
2018-05-09T07:20:02.131Z,22.90
2018-05-09T07:22:29.787Z,22.90
2018-05-09T07:24:57.428Z,22.80
2018-05-09T07:27:25.005Z,22.80
2018-05-09T07:29:52.708Z,22.60
2018-05-09T07:32:20.616Z,22.40
2018-05-09T07:34:48.950Z,22.70
2018-05-09T07:37:16.585Z,22.70
2018-05-09T07:39:44.175Z,22.70
2018-05-09T07:42:11.925Z,22.50
2018-05-09T07:44:39.920Z,22.60
2018-05-09T07:47:07.515Z,22.70
2018-05-09T07:49:35.150Z,23.00
2018-05-09T07:52:03.563Z,23.00
2018-05-09T07:54:31.168Z,23.00
2018-05-09T07:56:59.337Z,22.70
2018-05-09T07:59:26.940Z,22.50
2018-05-09T08:01:55.334Z,22.10
2018-05-09T08:04:22.916Z,22.10
2018-05-09T08:06:51.277Z,22.00
2018-05-09T08:09:18.911Z,22.00
2018-05-09T08:11:46.497Z,22.10
2018-05-09T08:14:14.121Z,22.30
2018-05-09T08:16:41.757Z,22.60
2018-05-09T08:19:09.407Z,22.80
2018-05-09T08:21:37.066Z,23.00
2018-05-09T08:24:04.684Z,23.20
2018-05-09T08:26:33.080Z,23.20
2018-05-09T08:29:01.695Z,22.90
2018-05-09T08:31:29.464Z,22.90
2018-05-09T08:33:57.169Z,23.10
2018-05-09T08:36:24.835Z,23.10
2018-05-09T08:38:52.696Z,23.20
2018-05-09T08:41:21.130Z,22.90
2018-05-09T08:43:49.449Z,22.80
2018-05-09T08:46:17.770Z,23.00
2018-05-09T08:48:45.492Z,23.20
2018-05-09T08:51:13.139Z,23.40
2018-05-09T08:53:40.771Z,23.50
2018-05-09T08:56:08.318Z,23.70
2018-05-09T08:58:35.905Z,23.80
2018-05-09T09:01:03.559Z,23.70
2018-05-09T09:03:31.236Z,23.80
2018-05-09T09:05:58.856Z,23.90
2018-05-09T09:08:26.443Z,23.90
2018-05-09T09:10:54.130Z,24.10
2018-05-09T09:13:23.324Z,23.80
2018-05-09T09:15:50.925Z,23.80
2018-05-09T09:18:20.478Z,23.60
2018-05-09T09:20:49.052Z,23.20
2018-05-09T09:23:17.387Z,23.00
2018-05-09T09:25:44.981Z,22.90
2018-05-09T09:28:12.590Z,22.80
2018-05-09T09:30:40.930Z,22.70
2018-05-09T09:33:08.594Z,22.60
2018-05-09T09:35:36.160Z,22.80
2018-05-09T09:38:03.764Z,22.90
2018-05-09T09:40:31.358Z,23.00
2018-05-09T09:42:58.949Z,23.00
2018-05-09T09:45:26.568Z,22.90
2018-05-09T09:47:54.176Z,23.00
2018-05-09T09:50:21.774Z,23.10
2018-05-09T09:52:49.356Z,23.20
2018-05-09T09:55:16.980Z,23.10
2018-05-09T09:57:45.486Z,22.80
2018-05-09T10:00:13.129Z,22.80
2018-05-09T10:02:40.728Z,22.90
2018-05-09T10:05:08.318Z,23.00
2018-05-09T10:07:35.907Z,22.90
2018-05-09T10:10:03.542Z,22.80
2018-05-09T10:12:31.156Z,22.90
2018-05-09T10:14:58.738Z,23.20
2018-05-09T10:17:26.386Z,23.30
2018-05-09T10:19:53.961Z,23.70
2018-05-09T10:22:21.582Z,24.00
2018-05-09T10:24:49.184Z,24.20
2018-05-09T10:27:16.801Z,24.70
2018-05-09T10:29:44.400Z,24.90
2018-05-09T10:32:12.000Z,24.90
2018-05-09T10:34:40.360Z,24.80
2018-05-09T10:37:08.069Z,24.80
2018-05-09T10:39:35.690Z,24.40
2018-05-09T10:42:03.287Z,24.30
2018-05-09T10:44:30.880Z,24.40
2018-05-09T10:46:58.435Z,24.60
2018-05-09T10:49:26.053Z,24.60
2018-05-09T10:51:53.665Z,24.60
2018-05-09T10:54:21.289Z,24.40
2018-05-09T10:56:48.885Z,24.70
2018-05-09T10:59:16.541Z,24.80
2018-05-09T11:01:44.161Z,24.90
2018-05-09T11:04:11.706Z,25.40
2018-05-09T11:06:40.107Z,25.80
2018-05-09T11:09:07.693Z,25.70
2018-05-09T11:11:35.320Z,25.90
2018-05-09T11:14:02.873Z,25.80
2018-05-09T11:16:31.256Z,25.10
2018-05-09T11:18:59.651Z,24.80
2018-05-09T11:21:27.268Z,24.80
2018-05-09T11:23:54.838Z,24.70
2018-05-09T11:26:22.410Z,24.70
2018-05-09T11:28:50.761Z,25.00
2018-05-09T11:31:18.395Z,25.00
2018-05-09T11:33:46.909Z,24.90
2018-05-09T11:36:14.500Z,25.00
2018-05-09T11:38:42.122Z,25.10
2018-05-09T11:41:09.738Z,25.10
2018-05-09T11:43:37.364Z,25.00
2018-05-09T11:46:04.958Z,24.80
2018-05-09T11:48:32.545Z,24.80
2018-05-09T11:51:00.133Z,24.70
2018-05-09T11:53:28.635Z,24.60
2018-05-09T11:55:57.003Z,24.70
2018-05-09T11:58:24.623Z,24.70
2018-05-09T12:00:52.441Z,24.80
2018-05-09T12:03:20.823Z,24.60
2018-05-09T12:05:49.173Z,24.30
2018-05-09T12:08:16.768Z,24.30
2018-05-09T12:10:45.181Z,27.00
2018-05-09T12:13:12.825Z,26.90
2018-05-09T12:15:40.435Z,28.60
2018-05-09T12:18:08.038Z,29.50
2018-05-09T12:20:35.655Z,29.40
2018-05-09T12:23:03.270Z,27.80
2018-05-09T12:25:30.869Z,27.30
2018-05-09T12:27:58.473Z,28.60
2018-05-09T12:30:26.058Z,30.60
2018-05-09T12:32:53.712Z,31.40
2018-05-09T12:35:21.331Z,32.70
2018-05-09T12:37:48.983Z,33.10
2018-05-09T12:40:16.607Z,34.20
2018-05-09T12:42:44.213Z,34.10
2018-05-09T12:45:11.831Z,34.60
2018-05-09T12:47:39.422Z,33.70
2018-05-09T12:50:07.041Z,32.20
2018-05-09T12:52:34.620Z,30.50
2018-05-09T12:55:02.241Z,28.80
2018-05-09T12:57:29.845Z,27.70
2018-05-09T12:59:57.453Z,27.40
2018-05-09T13:02:25.827Z,26.70
2018-05-09T13:04:54.218Z,27.10
2018-05-09T13:07:21.840Z,27.10
2018-05-09T13:09:49.384Z,27.50
2018-05-09T13:12:16.996Z,27.40
2018-05-09T13:14:45.337Z,27.20
2018-05-09T13:17:12.953Z,27.20
2018-05-09T13:19:40.583Z,27.30
2018-05-09T13:22:08.983Z,27.00
2018-05-09T13:24:37.351Z,27.10
2018-05-09T13:27:05.731Z,27.30
2018-05-09T13:29:34.127Z,27.10
2018-05-09T13:32:01.673Z,27.10
2018-05-09T13:34:30.093Z,27.30
2018-05-09T13:36:57.705Z,27.30
2018-05-09T13:39:26.081Z,28.80
2018-05-09T13:41:54.439Z,29.80
2018-05-09T13:44:22.853Z,30.20
2018-05-09T13:46:50.505Z,30.10
2018-05-09T13:49:18.125Z,30.00
2018-05-09T13:51:45.745Z,29.30
2018-05-09T13:54:13.343Z,29.30
2018-05-09T13:56:40.942Z,29.10
2018-05-09T13:59:09.333Z,28.60
2018-05-09T14:01:37.729Z,28.40
2018-05-09T14:04:05.279Z,28.30
2018-05-09T14:06:32.875Z,28.40
2018-05-09T14:09:00.488Z,28.70
2018-05-09T14:11:28.103Z,29.50
2018-05-09T14:13:55.689Z,30.30
2018-05-09T14:16:23.421Z,30.90
2018-05-09T14:18:50.999Z,31.30
2018-05-09T14:21:18.619Z,30.70
2018-05-09T14:23:47.327Z,28.70
2018-05-09T14:26:14.926Z,28.70
2018-05-09T14:28:42.540Z,28.30
2018-05-09T14:31:10.164Z,27.90
2018-05-09T14:33:38.543Z,29.20
2018-05-09T14:36:06.911Z,29.20
2018-05-09T14:38:35.317Z,28.50
2018-05-09T14:41:02.906Z,28.50
2018-05-09T14:43:30.527Z,27.80
2018-05-09T14:45:58.894Z,27.10
2018-05-09T14:48:27.283Z,26.60
2018-05-09T14:50:55.668Z,26.40
2018-05-09T14:53:23.249Z,26.40
2018-05-09T14:55:50.837Z,25.40
2018-05-09T14:58:19.179Z,25.50
2018-05-09T15:00:46.783Z,25.50
2018-05-09T15:03:14.383Z,25.90
2018-05-09T15:05:42.772Z,25.80
2018-05-09T15:08:15.722Z,25.70
2018-05-09T15:10:44.105Z,26.20
2018-05-09T15:13:11.696Z,26.80
2018-05-09T15:15:39.280Z,27.70
2018-05-09T15:18:06.902Z,28.20
2018-05-09T15:20:35.269Z,28.60
2018-05-09T15:23:02.846Z,28.60
2018-05-09T15:25:31.349Z,28.80
2018-05-09T15:27:58.941Z,28.80
2018-05-09T15:30:26.567Z,28.70
2018-05-09T15:32:54.259Z,28.60
2018-05-09T15:35:21.815Z,28.30
2018-05-09T15:37:49.526Z,28.20
2018-05-09T15:40:17.933Z,28.40
2018-05-09T15:42:45.553Z,28.40
2018-05-09T15:45:13.164Z,28.80
2018-05-09T15:47:40.780Z,29.00
2018-05-09T15:50:08.442Z,28.50
2018-05-09T15:52:35.999Z,28.20
2018-05-09T15:55:03.626Z,27.40
2018-05-09T15:57:31.215Z,26.80
2018-05-09T15:59:58.853Z,26.60
2018-05-09T16:02:26.426Z,26.70
2018-05-09T16:04:54.031Z,26.70
2018-05-09T16:07:22.386Z,26.00
2018-05-09T16:09:50.000Z,26.00
2018-05-09T16:12:17.620Z,25.70
2018-05-09T16:14:46.059Z,25.40
2018-05-09T16:17:13.638Z,25.40
2018-05-09T16:19:41.260Z,25.50
2018-05-09T16:22:08.844Z,25.50
2018-05-09T16:24:36.437Z,25.60
2018-05-09T16:27:04.826Z,25.80
2018-05-09T16:29:33.204Z,25.90
2018-05-09T16:32:00.821Z,25.90
2018-05-09T16:34:28.417Z,25.90
2018-05-09T16:36:56.032Z,26.00
2018-05-09T16:39:23.633Z,26.10
2018-05-09T16:41:51.549Z,25.90
2018-05-09T16:44:19.297Z,25.90
2018-05-09T16:46:46.905Z,25.90
2018-05-09T16:49:14.494Z,26.00
2018-05-09T16:51:43.197Z,25.90
2018-05-09T16:54:11.131Z,25.80
2018-05-09T16:56:42.862Z,25.80
2018-05-09T16:59:10.470Z,25.80
2018-05-09T17:01:38.075Z,25.70
2018-05-09T17:04:05.691Z,25.60
2018-05-09T17:06:34.089Z,25.30
2018-05-09T17:09:01.925Z,25.30
2018-05-09T17:11:30.306Z,24.80
2018-05-09T17:13:58.674Z,24.80
2018-05-09T17:16:26.300Z,24.80
2018-05-09T17:18:54.195Z,24.70
2018-05-09T17:21:34.725Z,24.50
2018-05-09T17:24:02.416Z,24.30
2018-05-09T17:26:30.170Z,24.20
2018-05-09T17:28:57.750Z,24.20
2018-05-09T17:31:25.670Z,24.10
2018-05-09T17:33:53.372Z,24.10
2018-05-09T17:36:25.428Z,24.10
2018-05-09T17:38:56.991Z,24.10
2018-05-09T17:41:24.578Z,24.10
2018-05-09T17:43:52.207Z,24.00
2018-05-09T17:46:20.599Z,24.00
2018-05-09T17:48:49.698Z,23.70
2018-05-09T17:51:18.236Z,23.70
2018-05-09T17:53:51.269Z,23.60
2018-05-09T17:56:19.927Z,23.60
2018-05-09T17:58:47.759Z,23.50
2018-05-09T18:01:18.876Z,23.20
2018-05-09T18:03:47.348Z,23.10
2018-05-09T18:06:17.193Z,23.00
2018-05-09T18:08:49.325Z,22.90
2018-05-09T18:11:17.668Z,22.70
2018-05-09T18:13:45.358Z,22.70
2018-05-09T18:16:13.298Z,22.70
2018-05-09T18:18:41.419Z,22.60
2018-05-09T18:21:09.174Z,22.50
2018-05-09T18:23:36.954Z,22.40
2018-05-09T18:26:05.058Z,22.30
2018-05-09T18:28:32.835Z,22.30
2018-05-09T18:31:00.428Z,22.20
2018-05-09T18:33:28.158Z,22.20
2018-05-09T18:35:55.793Z,22.10
2018-05-09T18:38:23.472Z,22.00
2018-05-09T18:40:51.096Z,22.00
2018-05-09T18:43:19.510Z,21.70
2018-05-09T18:45:47.180Z,21.70
2018-05-09T18:48:14.868Z,21.60
2018-05-09T18:50:42.531Z,21.30
2018-05-09T18:53:10.271Z,21.10
2018-05-09T18:55:37.926Z,20.90
2018-05-09T18:58:05.649Z,20.70
2018-05-09T19:00:34.040Z,20.40
2018-05-09T19:03:02.514Z,20.20
2018-05-09T19:05:31.058Z,20.10
2018-05-09T19:07:58.780Z,20.10
2018-05-09T19:10:26.440Z,20.00
2018-05-09T19:12:54.075Z,19.90
2018-05-09T19:15:22.817Z,19.80
2018-05-09T19:17:52.234Z,19.70
2018-05-09T19:20:19.978Z,19.70
2018-05-09T19:22:47.612Z,19.70
2018-05-09T19:25:15.232Z,19.70
2018-05-09T19:27:43.004Z,19.60
2018-05-09T19:30:14.879Z,19.50
2018-05-09T19:32:42.856Z,19.50
2018-05-09T19:35:20.604Z,19.50
2018-05-09T19:37:49.511Z,19.40
2018-05-09T19:40:17.429Z,19.40
2018-05-09T19:42:45.048Z,19.40
2018-05-09T19:45:12.654Z,19.40
2018-05-09T19:47:40.209Z,19.30
2018-05-09T19:50:07.773Z,19.30
2018-05-09T19:52:35.359Z,19.30
2018-05-09T19:55:03.102Z,19.20
2018-05-09T19:57:30.611Z,19.20
2018-05-09T19:59:58.215Z,19.20
2018-05-09T20:02:25.809Z,19.20
2018-05-09T20:04:53.402Z,19.20
2018-05-09T20:07:21.015Z,19.20
2018-05-09T20:09:48.620Z,19.20
2018-05-09T20:12:16.207Z,19.10
2018-05-09T20:14:43.827Z,19.10
2018-05-09T20:17:11.397Z,19.00
2018-05-09T20:19:38.984Z,18.90
2018-05-09T20:22:07.338Z,18.80
2018-05-09T20:24:34.942Z,18.80
2018-05-09T20:27:06.443Z,18.90
2018-05-09T20:29:34.076Z,19.00
2018-05-09T20:32:13.540Z,19.00
2018-05-09T20:34:41.909Z,18.90
2018-05-09T20:37:09.556Z,18.90
2018-05-09T20:39:37.166Z,18.90
2018-05-09T20:42:05.657Z,18.80
2018-05-09T20:44:33.154Z,18.80
2018-05-09T20:47:00.774Z,18.80
2018-05-09T20:49:29.131Z,18.70
2018-05-09T20:51:56.712Z,18.70
2018-05-09T20:54:25.118Z,18.50
2018-05-09T20:56:52.720Z,18.50
2018-05-09T20:59:20.325Z,18.50
2018-05-09T21:01:48.661Z,18.40
2018-05-09T21:04:17.046Z,18.30
2018-05-09T21:06:44.668Z,18.20
2018-05-09T21:09:12.348Z,18.30
2018-05-09T21:11:39.952Z,18.20
2018-05-09T21:14:08.340Z,18.10
2018-05-09T21:16:35.966Z,18.10
2018-05-09T21:19:06.937Z,18.10
2018-05-09T21:21:35.322Z,18.10
2018-05-09T21:24:02.944Z,18.10
2018-05-09T21:26:30.602Z,18.10
2018-05-09T21:28:58.227Z,18.20
2018-05-09T21:31:25.836Z,18.20
2018-05-09T21:33:53.430Z,18.20
2018-05-09T21:36:21.046Z,18.20
2018-05-09T21:38:48.778Z,18.30
2018-05-09T21:41:16.350Z,18.20
2018-05-09T21:43:43.936Z,18.30
2018-05-09T21:46:11.666Z,18.30
2018-05-09T21:48:39.310Z,18.20
2018-05-09T21:51:06.902Z,18.20
2018-05-09T21:53:34.496Z,18.20
2018-05-09T21:56:02.933Z,18.10
2018-05-09T21:58:30.596Z,18.10
2018-05-09T22:00:58.201Z,18.00
2018-05-09T22:03:26.606Z,17.90
2018-05-09T22:05:54.226Z,17.90
2018-05-09T22:08:22.580Z,17.80
2018-05-09T22:10:50.252Z,17.80
2018-05-09T22:13:36.527Z,17.80
2018-05-09T22:16:04.168Z,17.70
2018-05-09T22:18:31.808Z,17.70
2018-05-09T22:21:00.170Z,17.50
2018-05-09T22:23:27.794Z,17.60
2018-05-09T22:25:55.378Z,17.60
2018-05-09T22:28:23.010Z,17.50
2018-05-09T22:30:50.605Z,17.50
2018-05-09T22:33:18.172Z,17.50
2018-05-09T22:35:45.773Z,17.40
2018-05-09T22:38:13.362Z,17.40
2018-05-09T22:40:40.988Z,17.40
2018-05-09T22:43:08.597Z,17.40
2018-05-09T22:45:36.290Z,17.30
2018-05-09T22:48:03.938Z,17.30
2018-05-09T22:50:31.482Z,17.30
2018-05-09T22:52:59.094Z,17.30
2018-05-09T22:55:26.690Z,17.30
2018-05-09T22:57:54.268Z,17.30
2018-05-09T23:00:21.884Z,17.20
2018-05-09T23:02:49.478Z,17.20
2018-05-09T23:05:17.113Z,17.10
2018-05-09T23:07:44.786Z,17.00
2018-05-09T23:10:12.434Z,17.00
2018-05-09T23:12:40.008Z,16.90
2018-05-09T23:15:07.609Z,16.90
2018-05-09T23:17:35.233Z,16.80
2018-05-09T23:20:02.850Z,16.70
2018-05-09T23:22:31.194Z,16.60
2018-05-09T23:24:58.829Z,16.60
2018-05-09T23:27:26.461Z,16.60
2018-05-09T23:29:54.065Z,16.50
2018-05-09T23:32:21.620Z,16.50
2018-05-09T23:34:49.202Z,16.40
2018-05-09T23:37:16.804Z,16.30
2018-05-09T23:39:44.361Z,16.30
2018-05-09T23:42:11.969Z,16.20
2018-05-09T23:44:39.539Z,16.10
2018-05-09T23:47:07.114Z,16.10
2018-05-09T23:49:34.822Z,15.90
2018-05-09T23:52:02.485Z,15.80
2018-05-09T23:54:30.822Z,15.50
2018-05-09T23:56:59.240Z,15.40
2018-05-09T23:59:26.787Z,15.30
